JAL174 RJSC-RJTT
Flight info
| Callsign | JAL174 |
|---|---|
| Flight time | 0h 42m |
| Altitude | 20000 |
| Route | RUBIS Y10 GODIN |
| Aircraft | B762/H-SDFGIRWY/S |
Departure
| Time | 2026-04-26 08:04 |
|---|---|
| Airport | Yamagata Airport (RJSC) |
Arrival
| Time | 2026-04-26 08:47 |
|---|---|
| Airport | Tokyo Haneda International Airport (RJTT) |
| Time | Latitude | Longitude | Altitude | Speed | Heading |
|---|---|---|---|---|---|
| 2026-04-26 07:38 | 38.40984 | 140.36720 | 403 ft | 0 kts | 276° |
| 2026-04-26 07:56 | 38.40983 | 140.36737 | 399 ft | 3 kts | 267° |
| 2026-04-26 07:56 | 38.40984 | 140.36754 | 399 ft | 0 kts | 265° |
| 2026-04-26 07:57 | 38.40982 | 140.36778 | 399 ft | 3 kts | 257° |
| 2026-04-26 07:57 | 38.40990 | 140.36801 | 399 ft | 1 kts | 210° |
| 2026-04-26 07:57 | 38.41012 | 140.36807 | 399 ft | 3 kts | 186° |
| 2026-04-26 07:57 | 38.41038 | 140.36810 | 400 ft | 3 kts | 186° |
| 2026-04-26 07:58 | 38.41065 | 140.36813 | 400 ft | 3 kts | 186° |
| 2026-04-26 07:58 | 38.41092 | 140.36818 | 400 ft | 3 kts | 186° |
| 2026-04-26 07:58 | 38.41095 | 140.36818 | 400 ft | 0 kts | 186° |
| 2026-04-26 08:00 | 38.41092 | 140.36818 | 400 ft | 3 kts | 186° |
| 2026-04-26 08:00 | 38.41046 | 140.36822 | 400 ft | 7 kts | 150° |
| 2026-04-26 08:00 | 38.41032 | 140.36871 | 400 ft | 6 kts | 94° |
| 2026-04-26 08:00 | 38.41026 | 140.36925 | 400 ft | 6 kts | 97° |
| 2026-04-26 08:01 | 38.41019 | 140.37012 | 400 ft | 11 kts | 95° |
| 2026-04-26 08:01 | 38.40987 | 140.37094 | 400 ft | 9 kts | 152° |
| 2026-04-26 08:01 | 38.40923 | 140.37096 | 400 ft | 14 kts | 186° |
| 2026-04-26 08:01 | 38.40795 | 140.37077 | 400 ft | 19 kts | 186° |
| 2026-04-26 08:02 | 38.40662 | 140.37059 | 400 ft | 19 kts | 186° |
| 2026-04-26 08:02 | 38.40531 | 140.37042 | 400 ft | 18 kts | 185° |
| 2026-04-26 08:02 | 38.40432 | 140.37025 | 400 ft | 10 kts | 204° |
| 2026-04-26 08:02 | 38.40374 | 140.36975 | 400 ft | 9 kts | 214° |
| 2026-04-26 08:03 | 38.40320 | 140.36960 | 400 ft | 6 kts | 156° |
| 2026-04-26 08:03 | 38.40306 | 140.36997 | 400 ft | 4 kts | 68° |
| 2026-04-26 08:03 | 38.40325 | 140.37009 | 400 ft | 3 kts | 6° |
| 2026-04-26 08:03 | 38.40445 | 140.37027 | 400 ft | 49 kts | 7° |
| 2026-04-26 08:04 | 38.41105 | 140.37123 | 401 ft | 141 kts | 6° |
| 2026-04-26 08:04 | 38.42262 | 140.37302 | 930 ft | 186 kts | 9° |
| 2026-04-26 08:04 | 38.43350 | 140.37440 | 2469 ft | 150 kts | 10° |
| 2026-04-26 08:04 | 38.44526 | 140.37585 | 2571 ft | 186 kts | 8° |
| 2026-04-26 08:05 | 38.45862 | 140.37749 | 3051 ft | 199 kts | 9° |
| 2026-04-26 08:05 | 38.47232 | 140.37964 | 3784 ft | 198 kts | 9° |
| 2026-04-26 08:05 | 38.48657 | 140.38202 | 4314 ft | 216 kts | 9° |
| 2026-04-26 08:05 | 38.50193 | 140.38443 | 4910 ft | 231 kts | 8° |
| 2026-04-26 08:06 | 38.51844 | 140.38693 | 5554 ft | 246 kts | 8° |
| 2026-04-26 08:06 | 38.53616 | 140.38959 | 6237 ft | 263 kts | 7° |
| 2026-04-26 08:06 | 38.55481 | 140.39235 | 6944 ft | 278 kts | 7° |
| 2026-04-26 08:06 | 38.57438 | 140.39523 | 7874 ft | 284 kts | 6° |
| 2026-04-26 08:07 | 38.59407 | 140.39815 | 8826 ft | 289 kts | 5° |
| 2026-04-26 08:07 | 38.61404 | 140.40109 | 9859 ft | 291 kts | 5° |
| 2026-04-26 08:07 | 38.63422 | 140.40405 | 10730 ft | 299 kts | 5° |
| 2026-04-26 08:07 | 38.65536 | 140.40886 | 11302 ft | 319 kts | 17° |
| 2026-04-26 08:08 | 38.67577 | 140.42197 | 11797 ft | 342 kts | 34° |
| 2026-04-26 08:08 | 38.69318 | 140.44359 | 12329 ft | 361 kts | 51° |
| 2026-04-26 08:08 | 38.70580 | 140.47232 | 12854 ft | 379 kts | 68° |
| 2026-04-26 08:08 | 38.71228 | 140.50581 | 13239 ft | 400 kts | 84° |
| 2026-04-26 08:09 | 38.71136 | 140.54190 | 14013 ft | 407 kts | 101° |
| 2026-04-26 08:09 | 38.70317 | 140.57684 | 14774 ft | 412 kts | 115° |
| 2026-04-26 08:09 | 38.68920 | 140.60809 | 15614 ft | 413 kts | 127° |
| 2026-04-26 08:09 | 38.67037 | 140.63606 | 16324 ft | 417 kts | 138° |
| 2026-04-26 08:10 | 38.64755 | 140.65939 | 17097 ft | 418 kts | 150° |
| 2026-04-26 08:10 | 38.62217 | 140.67670 | 17835 ft | 419 kts | 161° |
| 2026-04-26 08:10 | 38.59424 | 140.68802 | 18566 ft | 419 kts | 172° |
| 2026-04-26 08:10 | 38.56532 | 140.69260 | 19261 ft | 418 kts | 182° |
| 2026-04-26 08:11 | 38.53672 | 140.69038 | 19995 ft | 417 kts | 192° |
| 2026-04-26 08:11 | 38.50808 | 140.68192 | 20074 ft | 428 kts | 202° |
| 2026-04-26 08:11 | 38.48042 | 140.66682 | 20068 ft | 431 kts | 211° |
| 2026-04-26 08:11 | 38.45542 | 140.64589 | 20039 ft | 425 kts | 221° |
| 2026-04-26 08:12 | 38.43332 | 140.62093 | 20088 ft | 423 kts | 225° |
| 2026-04-26 08:12 | 38.41148 | 140.59590 | 20056 ft | 427 kts | 224° |
| 2026-04-26 08:12 | 38.38925 | 140.57028 | 20071 ft | 428 kts | 225° |
| 2026-04-26 08:12 | 38.36704 | 140.54507 | 20080 ft | 426 kts | 224° |
| 2026-04-26 08:13 | 38.34281 | 140.52319 | 20060 ft | 427 kts | 214° |
| 2026-04-26 08:13 | 38.31576 | 140.50638 | 20078 ft | 435 kts | 206° |
| 2026-04-26 08:13 | 38.28725 | 140.49301 | 20078 ft | 433 kts | 203° |
| 2026-04-26 08:13 | 38.25879 | 140.48171 | 20072 ft | 435 kts | 200° |
| 2026-04-26 08:14 | 38.22926 | 140.47145 | 20070 ft | 438 kts | 199° |
| 2026-04-26 08:14 | 38.19933 | 140.46344 | 20060 ft | 444 kts | 192° |
| 2026-04-26 08:14 | 38.16830 | 140.46170 | 20059 ft | 448 kts | 182° |
| 2026-04-26 08:14 | 38.13720 | 140.46670 | 20059 ft | 451 kts | 173° |
| 2026-04-26 08:15 | 38.10643 | 140.47839 | 20047 ft | 461 kts | 164° |
| 2026-04-26 08:15 | 38.07635 | 140.49268 | 20056 ft | 462 kts | 165° |
| 2026-04-26 08:15 | 38.04624 | 140.50603 | 20053 ft | 457 kts | 166° |
| 2026-04-26 08:15 | 38.01594 | 140.51939 | 20052 ft | 459 kts | 166° |
| 2026-04-26 08:16 | 37.98579 | 140.53259 | 20059 ft | 461 kts | 166° |
| 2026-04-26 08:16 | 37.95553 | 140.54572 | 20055 ft | 458 kts | 166° |
| 2026-04-26 08:16 | 37.92518 | 140.55888 | 20061 ft | 460 kts | 166° |
| 2026-04-26 08:16 | 37.89474 | 140.57199 | 20057 ft | 459 kts | 166° |
| 2026-04-26 08:17 | 37.86449 | 140.58507 | 20065 ft | 458 kts | 166° |
| 2026-04-26 08:17 | 37.83430 | 140.59804 | 20061 ft | 459 kts | 166° |
| 2026-04-26 08:17 | 37.80402 | 140.61105 | 20068 ft | 460 kts | 166° |
| 2026-04-26 08:17 | 37.77319 | 140.62172 | 20056 ft | 454 kts | 174° |
| 2026-04-26 08:18 | 37.74186 | 140.62581 | 20065 ft | 446 kts | 183° |
| 2026-04-26 08:18 | 37.71099 | 140.62318 | 20062 ft | 442 kts | 193° |
| 2026-04-26 08:18 | 37.68113 | 140.61531 | 20071 ft | 440 kts | 197° |
| 2026-04-26 08:18 | 37.65090 | 140.60707 | 20063 ft | 441 kts | 197° |
| 2026-04-26 08:19 | 37.62102 | 140.59866 | 20066 ft | 437 kts | 197° |
| 2026-04-26 08:19 | 37.59139 | 140.59033 | 20069 ft | 440 kts | 197° |
| 2026-04-26 08:19 | 37.56144 | 140.58179 | 20074 ft | 436 kts | 197° |
| 2026-04-26 08:19 | 37.53162 | 140.57329 | 20075 ft | 436 kts | 197° |
| 2026-04-26 08:20 | 37.50189 | 140.56479 | 20084 ft | 439 kts | 197° |
| 2026-04-26 08:20 | 37.47228 | 140.55633 | 20071 ft | 436 kts | 197° |
| 2026-04-26 08:20 | 37.44238 | 140.54778 | 20070 ft | 438 kts | 197° |
| 2026-04-26 08:20 | 37.41270 | 140.53929 | 20082 ft | 438 kts | 197° |
| 2026-04-26 08:21 | 37.38275 | 140.53075 | 20080 ft | 437 kts | 197° |
| 2026-04-26 08:21 | 37.35302 | 140.52225 | 20092 ft | 436 kts | 198° |
| 2026-04-26 08:21 | 37.32352 | 140.51384 | 20088 ft | 439 kts | 197° |
| 2026-04-26 08:21 | 37.29359 | 140.50529 | 20072 ft | 435 kts | 197° |
| 2026-04-26 08:22 | 37.26371 | 140.49677 | 20095 ft | 438 kts | 197° |
| 2026-04-26 08:22 | 37.23403 | 140.48833 | 20108 ft | 436 kts | 197° |
| 2026-04-26 08:22 | 37.20456 | 140.47995 | 20138 ft | 435 kts | 197° |
| 2026-04-26 08:22 | 37.17496 | 140.47153 | 20091 ft | 434 kts | 197° |
| 2026-04-26 08:23 | 37.14508 | 140.46304 | 20097 ft | 437 kts | 197° |
| 2026-04-26 08:23 | 37.11555 | 140.45467 | 20110 ft | 436 kts | 197° |
| 2026-04-26 08:23 | 37.08599 | 140.44630 | 20102 ft | 433 kts | 198° |
| 2026-04-26 08:23 | 37.05642 | 140.43790 | 20131 ft | 439 kts | 197° |
| 2026-04-26 08:24 | 37.02652 | 140.42944 | 20091 ft | 436 kts | 197° |
| 2026-04-26 08:24 | 36.99678 | 140.42104 | 20098 ft | 434 kts | 197° |
| 2026-04-26 08:24 | 36.96714 | 140.41267 | 20095 ft | 437 kts | 197° |
| 2026-04-26 08:24 | 36.93774 | 140.40436 | 20098 ft | 433 kts | 197° |
| 2026-04-26 08:25 | 36.90851 | 140.39615 | 20083 ft | 424 kts | 197° |
| 2026-04-26 08:25 | 36.88012 | 140.38815 | 20036 ft | 404 kts | 197° |
| 2026-04-26 08:25 | 36.85317 | 140.38058 | 19554 ft | 393 kts | 197° |
| 2026-04-26 08:25 | 36.82663 | 140.37311 | 18984 ft | 386 kts | 198° |
| 2026-04-26 08:26 | 36.80053 | 140.36571 | 18526 ft | 381 kts | 197° |
| 2026-04-26 08:26 | 36.77466 | 140.35843 | 18130 ft | 379 kts | 197° |
| 2026-04-26 08:26 | 36.74874 | 140.35113 | 17773 ft | 383 kts | 197° |
| 2026-04-26 08:26 | 36.72243 | 140.34529 | 17386 ft | 384 kts | 192° |
| 2026-04-26 08:27 | 36.69591 | 140.34004 | 17008 ft | 381 kts | 193° |
| 2026-04-26 08:27 | 36.66988 | 140.33489 | 16634 ft | 379 kts | 192° |
| 2026-04-26 08:27 | 36.64375 | 140.32962 | 16253 ft | 378 kts | 192° |
| 2026-04-26 08:27 | 36.61818 | 140.32449 | 16086 ft | 373 kts | 192° |
| 2026-04-26 08:28 | 36.59243 | 140.31934 | 16100 ft | 376 kts | 192° |
| 2026-04-26 08:28 | 36.56632 | 140.31410 | 16100 ft | 380 kts | 192° |
| 2026-04-26 08:28 | 36.54020 | 140.30888 | 16086 ft | 379 kts | 192° |
| 2026-04-26 08:28 | 36.51388 | 140.30364 | 16092 ft | 378 kts | 192° |
| 2026-04-26 08:29 | 36.48800 | 140.29851 | 16092 ft | 377 kts | 192° |
| 2026-04-26 08:29 | 36.46177 | 140.29323 | 16100 ft | 377 kts | 192° |
| 2026-04-26 08:29 | 36.43584 | 140.28796 | 16091 ft | 377 kts | 193° |
| 2026-04-26 08:29 | 36.41118 | 140.27898 | 16065 ft | 361 kts | 206° |
| 2026-04-26 08:30 | 36.39024 | 140.26308 | 15712 ft | 351 kts | 219° |
| 2026-04-26 08:30 | 36.37162 | 140.24310 | 14671 ft | 361 kts | 223° |
| 2026-04-26 08:30 | 36.35249 | 140.22287 | 13887 ft | 362 kts | 222° |
| 2026-04-26 08:30 | 36.33327 | 140.20262 | 13212 ft | 360 kts | 221° |
| 2026-04-26 08:31 | 36.31429 | 140.18285 | 12543 ft | 360 kts | 221° |
| 2026-04-26 08:31 | 36.29504 | 140.16292 | 12219 ft | 347 kts | 221° |
| 2026-04-26 08:31 | 36.27712 | 140.14439 | 11739 ft | 328 kts | 221° |
| 2026-04-26 08:31 | 36.26002 | 140.12677 | 11252 ft | 311 kts | 221° |
| 2026-04-26 08:32 | 36.24376 | 140.11000 | 10898 ft | 294 kts | 221° |
| 2026-04-26 08:32 | 36.22848 | 140.09438 | 10531 ft | 280 kts | 220° |
| 2026-04-26 08:32 | 36.21392 | 140.07962 | 10228 ft | 268 kts | 220° |
| 2026-04-26 08:32 | 36.19936 | 140.06480 | 9631 ft | 267 kts | 220° |
| 2026-04-26 08:33 | 36.18506 | 140.05025 | 8988 ft | 269 kts | 220° |
| 2026-04-26 08:33 | 36.17057 | 140.03551 | 8462 ft | 265 kts | 220° |
| 2026-04-26 08:33 | 36.15663 | 140.02132 | 8270 ft | 259 kts | 220° |
| 2026-04-26 08:33 | 36.14236 | 140.00682 | 8068 ft | 265 kts | 220° |
| 2026-04-26 08:34 | 36.12812 | 139.99234 | 7878 ft | 268 kts | 220° |
| 2026-04-26 08:34 | 36.11376 | 139.97775 | 7675 ft | 265 kts | 220° |
| 2026-04-26 08:34 | 36.09955 | 139.96330 | 7456 ft | 264 kts | 220° |
| 2026-04-26 08:34 | 36.08520 | 139.94875 | 7262 ft | 262 kts | 220° |
| 2026-04-26 08:35 | 36.07117 | 139.93451 | 7071 ft | 261 kts | 220° |
| 2026-04-26 08:35 | 36.05696 | 139.92011 | 6884 ft | 262 kts | 220° |
| 2026-04-26 08:35 | 36.04288 | 139.90584 | 6705 ft | 263 kts | 220° |
| 2026-04-26 08:35 | 36.02860 | 139.89134 | 6529 ft | 263 kts | 220° |
| 2026-04-26 08:36 | 36.01438 | 139.87697 | 6349 ft | 264 kts | 220° |
| 2026-04-26 08:36 | 36.00005 | 139.86244 | 6168 ft | 266 kts | 219° |
| 2026-04-26 08:36 | 35.98570 | 139.84792 | 6011 ft | 266 kts | 219° |
| 2026-04-26 08:36 | 35.97157 | 139.83362 | 5838 ft | 264 kts | 219° |
| 2026-04-26 08:37 | 35.95731 | 139.81921 | 5664 ft | 262 kts | 218° |
| 2026-04-26 08:37 | 35.94313 | 139.80490 | 5494 ft | 261 kts | 219° |
| 2026-04-26 08:37 | 35.92914 | 139.79079 | 5334 ft | 260 kts | 218° |
| 2026-04-26 08:37 | 35.91504 | 139.77655 | 5171 ft | 260 kts | 218° |
| 2026-04-26 08:38 | 35.90125 | 139.76186 | 5014 ft | 260 kts | 228° |
| 2026-04-26 08:38 | 35.89196 | 139.74318 | 4993 ft | 256 kts | 243° |
| 2026-04-26 08:38 | 35.88391 | 139.72337 | 4987 ft | 259 kts | 242° |
| 2026-04-26 08:38 | 35.87576 | 139.70334 | 4983 ft | 260 kts | 243° |
| 2026-04-26 08:39 | 35.86718 | 139.68382 | 4972 ft | 259 kts | 231° |
| 2026-04-26 08:39 | 35.85370 | 139.66968 | 4996 ft | 251 kts | 210° |
| 2026-04-26 08:39 | 35.83889 | 139.65891 | 4978 ft | 239 kts | 210° |
| 2026-04-26 08:39 | 35.82494 | 139.64871 | 4969 ft | 226 kts | 209° |
| 2026-04-26 08:40 | 35.81154 | 139.63907 | 4988 ft | 217 kts | 208° |
| 2026-04-26 08:40 | 35.79770 | 139.63341 | 4982 ft | 206 kts | 184° |
| 2026-04-26 08:40 | 35.78320 | 139.63298 | 4587 ft | 216 kts | 179° |
| 2026-04-26 08:40 | 35.76784 | 139.63274 | 4169 ft | 220 kts | 179° |
| 2026-04-26 08:41 | 35.75265 | 139.63425 | 3813 ft | 218 kts | 160° |
| 2026-04-26 08:41 | 35.73982 | 139.64214 | 3767 ft | 190 kts | 150° |
| 2026-04-26 08:41 | 35.72903 | 139.64941 | 3739 ft | 166 kts | 150° |
| 2026-04-26 08:41 | 35.71922 | 139.65613 | 3924 ft | 164 kts | 150° |
| 2026-04-26 08:42 | 35.70856 | 139.66354 | 3858 ft | 177 kts | 149° |
| 2026-04-26 08:42 | 35.69847 | 139.67061 | 3613 ft | 158 kts | 149° |
| 2026-04-26 08:42 | 35.68936 | 139.67703 | 3362 ft | 142 kts | 149° |
| 2026-04-26 08:42 | 35.68108 | 139.68288 | 3170 ft | 131 kts | 149° |
| 2026-04-26 08:43 | 35.67328 | 139.68842 | 2990 ft | 129 kts | 149° |
| 2026-04-26 08:43 | 35.66541 | 139.69400 | 2816 ft | 130 kts | 149° |
| 2026-04-26 08:43 | 35.65751 | 139.69961 | 2611 ft | 130 kts | 149° |
| 2026-04-26 08:43 | 35.64981 | 139.70511 | 2403 ft | 128 kts | 148° |
| 2026-04-26 08:44 | 35.64206 | 139.71062 | 2216 ft | 128 kts | 149° |
| 2026-04-26 08:44 | 35.63428 | 139.71616 | 2020 ft | 129 kts | 148° |
| 2026-04-26 08:44 | 35.62653 | 139.72166 | 1835 ft | 128 kts | 149° |
| 2026-04-26 08:44 | 35.61880 | 139.72717 | 1635 ft | 128 kts | 148° |
| 2026-04-26 08:45 | 35.61109 | 139.73267 | 1437 ft | 127 kts | 149° |
| 2026-04-26 08:45 | 35.60344 | 139.73811 | 1256 ft | 126 kts | 149° |
| 2026-04-26 08:45 | 35.59580 | 139.74361 | 1060 ft | 128 kts | 149° |
| 2026-04-26 08:45 | 35.58807 | 139.74916 | 834 ft | 129 kts | 149° |
| 2026-04-26 08:46 | 35.58026 | 139.75470 | 597 ft | 129 kts | 151° |
| 2026-04-26 08:46 | 35.57245 | 139.76033 | 432 ft | 131 kts | 150° |
| 2026-04-26 08:46 | 35.56454 | 139.76596 | 236 ft | 128 kts | 152° |
| 2026-04-26 08:46 | 35.55678 | 139.77138 | 93 ft | 129 kts | 151° |
| 2026-04-26 08:47 | 35.54907 | 139.77679 | 31 ft | 106 kts | 149° |
| 2026-04-26 08:47 | 35.54538 | 139.77943 | 31 ft | 23 kts | 148° |
| 2026-04-26 08:47 | 35.54530 | 139.78098 | 31 ft | 12 kts | 59° |
| 2026-04-26 08:47 | 35.54532 | 139.78102 | 31 ft | 0 kts | 59° |
| 2026-04-26 08:48 | 35.54538 | 139.78113 | 31 ft | 7 kts | 59° |
| 2026-04-26 08:48 | 35.54579 | 139.78201 | 31 ft | 11 kts | 61° |
| 2026-04-26 08:48 | 35.54591 | 139.78282 | 31 ft | 3 kts | 111° |
| 2026-04-26 08:49 | 35.54563 | 139.78307 | 31 ft | 5 kts | 148° |
| 2026-04-26 08:49 | 35.54525 | 139.78332 | 31 ft | 6 kts | 151° |
| 2026-04-26 08:49 | 35.54508 | 139.78346 | 31 ft | 0 kts | 130° |
| 2026-04-26 08:49 | 35.54509 | 139.78365 | 31 ft | 7 kts | 66° |
| 2026-04-26 08:50 | 35.54528 | 139.78438 | 31 ft | 7 kts | 76° |
| 2026-04-26 08:50 | 35.54533 | 139.78462 | 31 ft | 0 kts | 78° |